createdAt,value
2022-10-19T00:00:04.877Z,14.29
2022-10-19T00:01:04.856Z,14.28
2022-10-19T00:02:04.918Z,14.29
2022-10-19T00:03:04.834Z,14.29
2022-10-19T00:04:07.904Z,14.30
2022-10-19T00:05:04.828Z,14.28
2022-10-19T00:06:04.802Z,14.28
2022-10-19T00:07:04.807Z,14.28
2022-10-19T00:08:04.775Z,14.26
2022-10-19T00:09:04.790Z,14.30
2022-10-19T00:10:04.791Z,14.32
2022-10-19T00:11:04.754Z,14.32
2022-10-19T00:12:04.734Z,14.30
2022-10-19T00:13:04.726Z,14.30
2022-10-19T00:14:04.725Z,14.28
2022-10-19T00:15:04.769Z,14.28
2022-10-19T00:16:06.785Z,14.26
2022-10-19T00:17:04.682Z,14.28
2022-10-19T00:18:04.670Z,14.26
2022-10-19T00:19:04.663Z,14.23
2022-10-19T00:20:04.645Z,14.25
2022-10-19T00:21:04.640Z,14.25
2022-10-19T00:22:05.223Z,14.26
2022-10-19T00:23:04.639Z,14.25
2022-10-19T00:24:04.606Z,14.23
2022-10-19T00:25:04.595Z,14.23
2022-10-19T00:26:04.595Z,14.22
2022-10-19T00:27:04.579Z,14.22
2022-10-19T00:28:04.576Z,14.26
2022-10-19T00:29:04.676Z,14.25
2022-10-19T00:30:04.541Z,14.20
2022-10-19T00:31:04.537Z,14.20
2022-10-19T00:32:04.518Z,14.18
2022-10-19T00:33:04.515Z,14.15
2022-10-19T00:34:04.517Z,14.15
2022-10-19T00:35:04.493Z,14.18
2022-10-19T00:36:04.480Z,14.18
2022-10-19T00:37:04.466Z,14.17
2022-10-19T00:38:04.459Z,14.17
2022-10-19T00:39:04.479Z,14.17
2022-10-19T00:40:04.447Z,14.14
2022-10-19T00:41:04.426Z,14.14
2022-10-19T00:42:04.413Z,14.10
2022-10-19T00:43:04.407Z,14.10
2022-10-19T00:44:04.426Z,14.08
2022-10-19T00:45:04.399Z,14.08
2022-10-19T00:46:04.367Z,14.05
2022-10-19T00:47:04.360Z,14.05
2022-10-19T00:48:04.343Z,14.07
2022-10-19T00:49:05.883Z,14.07
2022-10-19T00:50:04.366Z,14.10
2022-10-19T00:51:04.318Z,14.07
2022-10-19T00:52:04.302Z,14.05
2022-10-19T00:53:04.294Z,14.04
2022-10-19T00:54:04.297Z,14.04
2022-10-19T00:55:04.275Z,14.05
2022-10-19T00:56:04.267Z,14.05
2022-10-19T00:57:04.251Z,14.04
2022-10-19T00:58:04.248Z,14.04
2022-10-19T00:59:04.234Z,14.05
2022-10-19T01:00:04.248Z,14.05
2022-10-19T01:01:04.242Z,14.05
2022-10-19T01:02:04.194Z,14.05
2022-10-19T01:03:04.196Z,14.04
2022-10-19T01:04:04.182Z,14.00
2022-10-19T01:05:04.186Z,14.03
2022-10-19T01:06:04.154Z,14.00
2022-10-19T01:07:04.202Z,13.97
2022-10-19T01:08:04.142Z,14.00
2022-10-19T01:09:04.127Z,14.00
2022-10-19T01:10:04.108Z,14.04
2022-10-19T05:01:07.294Z,12.76
2022-10-19T05:02:08.245Z,12.70
2022-10-19T05:03:08.238Z,12.72
2022-10-19T05:04:08.244Z,12.70
2022-10-19T05:05:08.210Z,12.67
2022-10-19T05:06:08.200Z,12.68
2022-10-19T05:07:08.192Z,12.65
2022-10-19T05:08:08.193Z,12.64
2022-10-19T05:09:08.168Z,12.64
2022-10-19T05:10:08.155Z,12.64
2022-10-19T05:11:08.144Z,12.61
2022-10-19T05:12:08.140Z,12.64
2022-10-19T05:13:08.119Z,12.62
2022-10-19T05:14:08.133Z,12.61
2022-10-19T05:15:08.114Z,12.58
2022-10-19T05:17:24.465Z,12.60
2022-10-19T05:18:25.366Z,12.57
2022-10-19T05:19:25.384Z,12.57
2022-10-19T05:20:25.343Z,12.55
2022-10-19T05:21:25.484Z,12.54
2022-10-19T05:22:25.337Z,12.55
2022-10-19T05:23:25.347Z,12.54
2022-10-19T05:24:25.250Z,12.58
2022-10-19T05:25:25.313Z,12.58
2022-10-19T05:26:25.238Z,12.60
2022-10-19T05:27:25.261Z,12.61
2022-10-19T05:28:25.205Z,12.61
2022-10-19T05:29:25.257Z,12.60
2022-10-19T05:30:25.258Z,12.60
2022-10-19T05:31:25.199Z,12.62
2022-10-19T05:32:25.180Z,12.64
2022-10-19T05:33:25.180Z,12.62
2022-10-19T05:34:25.169Z,12.61
2022-10-19T05:35:25.133Z,12.62
2022-10-19T05:36:25.141Z,12.62
2022-10-19T05:37:25.123Z,12.61
2022-10-19T05:38:25.111Z,12.62
2022-10-19T05:39:25.117Z,12.58
2022-10-19T05:40:25.085Z,12.60
2022-10-19T05:41:25.070Z,12.60
2022-10-19T05:42:25.068Z,12.61
2022-10-19T05:43:25.083Z,12.60
2022-10-19T05:44:25.084Z,12.62
2022-10-19T05:45:25.099Z,12.64
2022-10-19T05:46:25.050Z,12.62
2022-10-19T05:47:27.412Z,12.64
2022-10-19T05:48:25.009Z,12.61
2022-10-19T05:49:24.991Z,12.62
2022-10-19T05:50:24.978Z,12.62
2022-10-19T05:51:24.999Z,12.64
2022-10-19T05:52:24.959Z,12.62
2022-10-19T05:53:24.987Z,12.65
2022-10-19T05:54:26.445Z,12.62
2022-10-19T05:55:24.930Z,12.67
2022-10-19T05:56:24.945Z,12.65
2022-10-19T05:57:24.908Z,12.62
2022-10-19T05:58:24.892Z,12.64
2022-10-19T05:59:24.885Z,12.64
2022-10-19T06:00:24.875Z,12.64
2022-10-19T06:01:24.918Z,12.62
2022-10-19T06:02:24.943Z,12.62
2022-10-19T06:03:24.837Z,12.61
2022-10-19T06:04:24.847Z,12.61
2022-10-19T06:05:24.818Z,12.61
2022-10-19T06:06:24.804Z,12.61
2022-10-19T06:07:24.820Z,12.62
2022-10-19T06:08:24.801Z,12.62
2022-10-19T06:09:25.009Z,12.61
2022-10-19T06:10:24.764Z,12.62
2022-10-19T06:11:24.754Z,12.62
2022-10-19T06:12:25.207Z,12.61
2022-10-19T06:13:24.741Z,12.58
2022-10-19T06:14:24.717Z,12.57
2022-10-19T06:15:24.730Z,12.60
2022-10-19T06:16:24.717Z,12.62
2022-10-19T06:17:24.694Z,12.61
2022-10-19T06:18:24.689Z,12.61
2022-10-19T06:19:24.681Z,12.60
2022-10-19T06:20:24.660Z,12.58
2022-10-19T06:21:24.683Z,12.57
2022-10-19T06:22:24.658Z,12.58
2022-10-19T06:23:24.667Z,12.54
2022-10-19T06:24:24.660Z,12.55
2022-10-19T06:25:24.652Z,12.55
2022-10-19T06:26:24.592Z,12.54
2022-10-19T06:27:24.662Z,12.54
2022-10-19T06:28:24.582Z,12.49
2022-10-19T06:29:24.555Z,12.49
2022-10-19T06:30:24.599Z,12.46
2022-10-19T06:31:24.547Z,12.47
2022-10-19T06:32:24.520Z,12.49
2022-10-19T06:33:24.531Z,12.50
2022-10-19T06:34:24.621Z,12.49
2022-10-19T06:35:24.497Z,12.50
2022-10-19T06:36:24.488Z,12.54
2022-10-19T06:37:24.578Z,12.54
2022-10-19T06:38:24.458Z,12.53
2022-10-19T06:39:24.466Z,12.55
2022-10-19T06:40:24.496Z,12.49
2022-10-19T06:41:24.433Z,12.54
2022-10-19T06:42:24.437Z,12.54
2022-10-19T06:43:24.411Z,12.55
2022-10-19T06:44:24.401Z,12.54
2022-10-19T06:45:24.415Z,12.54
2022-10-19T06:46:24.382Z,12.53
2022-10-19T06:47:24.381Z,12.49
2022-10-19T06:48:24.358Z,12.50
2022-10-19T06:49:24.341Z,12.46
2022-10-19T06:50:24.335Z,12.47
2022-10-19T06:51:24.345Z,12.53
2022-10-19T06:52:24.318Z,12.53
2022-10-19T06:53:24.328Z,12.54
2022-10-19T06:54:24.293Z,12.54
2022-10-19T06:55:24.287Z,12.50
2022-10-19T06:56:24.276Z,12.49
2022-10-19T06:57:24.281Z,12.49
2022-10-19T06:58:24.324Z,12.49
2022-10-19T06:59:24.238Z,12.50
2022-10-19T07:00:24.259Z,12.50
2022-10-19T07:01:24.337Z,12.50
2022-10-19T07:02:24.203Z,12.50
2022-10-19T07:03:24.217Z,12.53
2022-10-19T07:04:24.184Z,12.50
2022-10-19T07:05:24.178Z,12.54
2022-10-19T07:06:24.172Z,12.54
2022-10-19T07:07:24.231Z,12.53
2022-10-19T07:08:24.140Z,12.50
2022-10-19T07:09:24.169Z,12.43
2022-10-19T07:10:24.128Z,12.40
2022-10-19T07:11:24.115Z,12.36
2022-10-19T07:12:24.098Z,12.31
2022-10-19T07:13:24.110Z,12.29
2022-10-19T07:14:24.095Z,12.28
2022-10-19T07:15:24.064Z,12.27
2022-10-19T07:16:24.070Z,12.27
2022-10-19T07:17:24.045Z,12.31
2022-10-19T07:18:24.049Z,12.29
2022-10-19T07:19:24.030Z,12.31
2022-10-19T07:20:24.094Z,12.31
2022-10-19T07:21:24.036Z,12.31
2022-10-19T07:22:27.925Z,12.31
2022-10-19T07:23:23.981Z,12.31
2022-10-19T07:24:23.973Z,12.31
2022-10-19T07:25:23.968Z,12.31
2022-10-19T07:26:24.053Z,12.31
2022-10-19T07:27:23.947Z,12.32
2022-10-19T07:28:23.978Z,12.31
2022-10-19T07:29:23.919Z,12.32
2022-10-19T07:30:23.933Z,12.32
2022-10-19T07:31:23.918Z,12.29
2022-10-19T07:32:23.887Z,12.29
2022-10-19T07:33:23.889Z,12.31
2022-10-19T07:34:25.529Z,12.31
2022-10-19T07:35:23.878Z,12.32
2022-10-19T07:36:23.854Z,12.29
2022-10-19T07:37:23.860Z,12.28
2022-10-19T07:38:23.860Z,12.29
2022-10-19T07:39:23.832Z,12.27
2022-10-19T07:40:23.867Z,12.25
2022-10-19T07:41:23.796Z,12.25
2022-10-19T07:42:23.796Z,12.25
2022-10-19T07:43:23.788Z,12.22
2022-10-19T07:44:23.758Z,12.21
2022-10-19T07:45:23.744Z,12.24
2022-10-19T07:46:23.751Z,12.24
2022-10-19T07:47:23.723Z,12.25
2022-10-19T07:48:23.721Z,12.24
2022-10-19T07:49:23.729Z,12.24
2022-10-19T07:50:23.740Z,12.24
2022-10-19T07:51:23.755Z,12.25
2022-10-19T07:52:23.685Z,12.22
2022-10-19T07:53:23.683Z,12.21
2022-10-19T07:54:23.666Z,12.25
2022-10-19T07:55:23.670Z,12.24
2022-10-19T07:56:23.628Z,12.27
2022-10-19T07:57:23.619Z,12.27
2022-10-19T07:58:23.618Z,12.27
2022-10-19T07:59:23.612Z,12.28
2022-10-19T08:00:23.614Z,12.28
2022-10-19T08:01:23.601Z,12.29
2022-10-19T08:02:30.743Z,12.29
2022-10-19T08:05:23.617Z,12.28
2022-10-19T08:06:23.550Z,12.25
2022-10-19T08:07:23.508Z,12.25
2022-10-19T08:08:23.545Z,12.24
2022-10-19T08:09:51.080Z,12.20
2022-10-19T08:10:23.485Z,12.22
2022-10-19T08:11:23.482Z,12.24
2022-10-19T08:12:23.487Z,12.22
2022-10-19T08:13:23.452Z,12.24
2022-10-19T08:14:23.464Z,12.24
2022-10-19T08:15:23.430Z,12.24
2022-10-19T08:16:23.419Z,12.20
2022-10-19T08:17:23.403Z,12.18
2022-10-19T08:18:23.433Z,12.21
2022-10-19T08:19:23.387Z,12.21
2022-10-19T08:20:23.417Z,12.21
2022-10-19T08:21:23.387Z,12.20
2022-10-19T08:22:23.375Z,12.18
2022-10-19T08:23:23.347Z,12.20
2022-10-19T08:24:23.353Z,12.21
2022-10-19T08:25:23.842Z,12.18
2022-10-19T08:26:23.343Z,12.20
2022-10-19T08:27:23.352Z,12.18
2022-10-19T08:28:23.325Z,12.18
2022-10-19T08:29:24.639Z,12.18
2022-10-19T08:30:23.309Z,12.18
2022-10-19T08:31:23.322Z,12.20
2022-10-19T08:32:23.287Z,12.20
2022-10-19T08:33:23.247Z,12.21
2022-10-19T08:34:23.228Z,12.21
2022-10-19T08:35:23.221Z,12.20
2022-10-19T08:36:23.228Z,12.20
2022-10-19T08:37:40.193Z,12.20
2022-10-19T08:38:23.191Z,12.20
2022-10-19T08:39:23.170Z,12.20
2022-10-19T08:40:23.159Z,12.18
2022-10-19T08:41:23.156Z,12.18
2022-10-19T08:42:23.186Z,12.18
2022-10-19T08:43:23.132Z,12.20
2022-10-19T08:44:23.118Z,12.21
2022-10-19T08:45:23.102Z,12.20
2022-10-19T08:46:23.092Z,12.22
2022-10-19T08:47:33.368Z,12.21
2022-10-19T08:48:23.122Z,12.21
2022-10-19T08:49:23.066Z,12.21
2022-10-19T08:50:23.048Z,12.20
2022-10-19T08:51:23.035Z,12.18
2022-10-19T08:52:23.035Z,12.18
2022-10-19T08:53:23.021Z,12.17
2022-10-19T08:54:23.024Z,12.17
2022-10-19T08:55:23.017Z,12.17
2022-10-19T08:56:45.767Z,12.17
2022-10-19T08:57:22.994Z,12.20
2022-10-19T08:58:22.970Z,12.22
2022-10-19T08:59:22.955Z,12.21
2022-10-19T09:00:23.052Z,12.22
2022-10-19T09:01:22.937Z,12.24
2022-10-19T09:02:22.925Z,12.25
2022-10-19T09:03:31.902Z,12.25
2022-10-19T09:04:22.911Z,12.28
2022-10-19T09:05:22.940Z,12.27
2022-10-19T09:06:22.879Z,12.29
2022-10-19T09:07:22.874Z,12.32
2022-10-19T09:08:22.872Z,12.37
2022-10-19T09:09:22.849Z,12.37
2022-10-19T09:10:22.837Z,12.39
2022-10-19T09:11:22.843Z,12.42
2022-10-19T09:12:22.822Z,12.45
2022-10-19T09:13:22.845Z,12.45
2022-10-19T09:14:22.805Z,12.45
2022-10-19T09:15:22.780Z,12.43
2022-10-19T09:16:22.779Z,12.45
2022-10-19T09:17:22.790Z,12.46
2022-10-19T09:18:22.758Z,12.47
2022-10-19T09:19:22.754Z,12.50
2022-10-19T09:20:22.745Z,12.53
2022-10-19T09:21:30.893Z,12.53
2022-10-19T09:22:22.717Z,12.55
2022-10-19T09:23:22.722Z,12.57
2022-10-19T09:24:22.703Z,12.60
2022-10-19T09:25:22.681Z,12.60
2022-10-19T09:26:22.666Z,12.62
2022-10-19T09:27:22.651Z,12.62
2022-10-19T09:28:25.661Z,12.64
2022-10-19T09:29:22.673Z,12.65
2022-10-19T09:30:22.630Z,12.67
2022-10-19T09:31:22.616Z,12.70
2022-10-19T09:32:22.601Z,12.70
2022-10-19T09:33:22.591Z,12.70
2022-10-19T09:34:22.596Z,12.75
2022-10-19T09:35:22.577Z,12.76
2022-10-19T09:36:27.673Z,12.76
2022-10-19T09:37:26.339Z,12.78
2022-10-19T09:38:22.543Z,12.80
2022-10-19T09:39:24.541Z,12.83
2022-10-19T09:40:22.541Z,12.83
2022-10-19T09:41:22.534Z,12.86
2022-10-19T09:42:22.501Z,12.90
2022-10-19T09:43:22.509Z,12.90
2022-10-19T09:44:22.476Z,12.93
2022-10-19T09:45:22.483Z,12.95
2022-10-19T09:46:22.454Z,12.97
2022-10-19T09:47:22.440Z,12.98
2022-10-19T09:48:22.438Z,13.00
2022-10-19T09:49:22.421Z,13.04
2022-10-19T09:50:22.415Z,13.05
2022-10-19T09:51:22.418Z,13.08
2022-10-19T09:52:22.400Z,13.04
2022-10-19T09:53:22.378Z,13.04
2022-10-19T09:54:22.377Z,13.04
2022-10-19T09:55:22.356Z,13.04
2022-10-19T09:56:22.382Z,13.04
2022-10-19T09:57:22.339Z,13.05
2022-10-19T09:58:22.327Z,13.04
2022-10-19T09:59:22.318Z,13.05
2022-10-19T10:00:22.315Z,13.04
2022-10-19T10:01:22.289Z,13.09
2022-10-19T10:02:22.307Z,13.09
2022-10-19T10:03:22.276Z,13.12
2022-10-19T10:04:22.260Z,13.15
2022-10-19T10:05:22.246Z,13.16
2022-10-19T10:06:22.254Z,13.19
2022-10-19T10:07:22.228Z,13.22
2022-10-19T10:08:22.245Z,13.25
2022-10-19T10:09:22.210Z,13.30
2022-10-19T10:10:25.514Z,13.33
2022-10-19T10:11:22.185Z,13.37
2022-10-19T10:12:22.170Z,13.37
2022-10-19T10:13:22.159Z,13.42
2022-10-19T10:14:22.171Z,13.44
2022-10-19T10:16:33.356Z,13.49
2022-10-19T10:17:34.337Z,13.50
2022-10-19T10:18:34.325Z,13.52
2022-10-19T10:19:34.324Z,13.53
2022-10-19T10:20:34.306Z,13.56
2022-10-19T10:21:34.293Z,13.56
2022-10-19T10:22:34.542Z,13.57
2022-10-19T10:23:34.278Z,13.60
2022-10-19T10:24:34.264Z,13.63
2022-10-19T10:25:34.267Z,13.67
2022-10-19T10:27:34.648Z,13.68
2022-10-19T10:28:34.216Z,13.72
2022-10-19T10:29:34.207Z,13.74
2022-10-19T10:30:34.191Z,13.78
2022-10-19T10:31:34.210Z,13.85
2022-10-19T10:32:34.502Z,13.90
2022-10-19T10:33:44.304Z,13.96
2022-10-19T10:35:34.147Z,14.03
2022-10-19T10:36:34.144Z,14.08
2022-10-19T10:37:34.344Z,14.12
2022-10-19T10:38:34.106Z,14.18
2022-10-19T10:39:34.105Z,14.20
2022-10-19T10:40:34.082Z,14.26
2022-10-19T10:41:34.101Z,14.32
2022-10-19T10:42:34.397Z,14.36
2022-10-19T10:43:34.055Z,14.43
2022-10-19T10:44:34.050Z,14.45
2022-10-19T10:45:34.030Z,14.51
2022-10-19T10:46:34.033Z,14.54
2022-10-19T10:47:34.350Z,14.58
2022-10-19T10:48:34.013Z,14.60
2022-10-19T10:49:33.993Z,14.62
2022-10-19T10:50:34.016Z,14.66
2022-10-19T10:51:33.972Z,14.70
2022-10-19T10:52:34.264Z,14.78
2022-10-19T10:53:33.984Z,14.79
2022-10-19T10:54:33.934Z,14.84
2022-10-19T10:55:33.931Z,14.85
2022-10-19T10:56:34.099Z,14.89
2022-10-19T10:57:33.903Z,14.92
2022-10-19T10:58:33.893Z,14.96
2022-10-19T10:59:33.901Z,14.97
2022-10-19T11:00:33.876Z,14.99
2022-10-19T11:01:33.951Z,15.04
2022-10-19T11:02:33.943Z,15.07
2022-10-19T11:03:33.846Z,15.10
2022-10-19T11:04:33.826Z,15.14
2022-10-19T11:05:33.827Z,15.17
2022-10-19T11:06:33.810Z,15.19
2022-10-19T11:07:34.175Z,15.22
2022-10-19T11:08:33.927Z,15.24
2022-10-19T11:09:33.782Z,15.28
2022-10-19T11:10:33.757Z,15.25
2022-10-19T11:11:33.762Z,15.28
2022-10-19T11:12:35.198Z,15.31
2022-10-19T11:13:33.731Z,15.35
2022-10-19T11:14:33.738Z,15.39
2022-10-19T11:15:33.730Z,15.42
2022-10-19T11:16:33.696Z,15.42
2022-10-19T11:17:33.908Z,15.46
2022-10-19T11:18:39.685Z,15.47
2022-10-19T11:19:33.678Z,15.49
2022-10-19T11:20:33.676Z,15.52
2022-10-19T11:21:33.655Z,15.54
2022-10-19T11:22:34.064Z,15.55
2022-10-19T11:23:33.626Z,15.57
2022-10-19T11:24:33.628Z,15.57
2022-10-19T11:25:33.624Z,15.58
2022-10-19T11:26:33.610Z,15.58
2022-10-19T11:27:33.951Z,15.58
2022-10-19T11:28:33.575Z,15.62
2022-10-19T11:29:33.566Z,15.64
2022-10-19T11:30:33.546Z,15.65
2022-10-19T11:31:33.573Z,15.67
2022-10-19T11:32:33.796Z,15.65
2022-10-19T11:33:33.568Z,15.67
2022-10-19T11:34:33.512Z,15.67
2022-10-19T11:35:33.507Z,15.64
2022-10-19T11:36:33.490Z,15.62
2022-10-19T11:37:33.817Z,15.61
2022-10-19T11:38:33.490Z,15.61
2022-10-19T11:39:33.463Z,15.61
2022-10-19T11:40:33.447Z,15.64
2022-10-19T11:41:33.436Z,15.62
2022-10-19T11:42:33.418Z,15.64
2022-10-19T11:43:33.416Z,15.62
2022-10-19T11:44:33.442Z,15.65
2022-10-19T11:45:33.394Z,15.65
2022-10-19T11:46:33.382Z,15.67
2022-10-19T11:47:33.713Z,15.67
2022-10-19T11:48:33.405Z,15.67
2022-10-19T11:49:33.367Z,15.65
2022-10-19T11:50:33.365Z,15.65
2022-10-19T11:51:33.334Z,15.68
2022-10-19T11:52:33.615Z,15.73
2022-10-19T11:53:33.310Z,15.73
2022-10-19T11:54:33.290Z,15.77
2022-10-19T11:55:33.306Z,15.76
2022-10-19T11:56:39.399Z,15.79
2022-10-19T11:57:33.755Z,15.80
2022-10-19T11:58:34.972Z,15.80
2022-10-19T11:59:33.244Z,15.82
2022-10-19T12:00:39.211Z,15.84
2022-10-19T12:01:33.275Z,15.84
2022-10-19T12:02:33.626Z,15.90
2022-10-19T12:03:33.203Z,15.90
2022-10-19T12:04:33.187Z,15.92
2022-10-19T12:05:33.173Z,15.95
2022-10-19T12:06:33.191Z,15.97
2022-10-19T12:07:33.159Z,15.97
2022-10-19T12:08:33.178Z,16.00
2022-10-19T12:09:33.137Z,16.01
2022-10-19T12:10:33.124Z,16.04
2022-10-19T12:11:33.117Z,16.04
2022-10-19T12:12:33.549Z,16.05
2022-10-19T12:13:33.109Z,16.12
2022-10-19T12:14:33.074Z,16.12
2022-10-19T12:15:33.074Z,16.15
2022-10-19T12:16:33.069Z,16.15
2022-10-19T12:17:33.283Z,16.15
2022-10-19T12:18:33.035Z,16.21
2022-10-19T12:19:33.039Z,16.23
2022-10-19T12:20:33.018Z,16.24
2022-10-19T12:21:33.013Z,16.29
2022-10-19T12:22:33.031Z,16.31
2022-10-19T12:23:33.006Z,16.28
2022-10-19T12:24:32.969Z,16.29
2022-10-19T12:25:32.990Z,16.29
2022-10-19T12:26:32.964Z,16.28
2022-10-19T12:27:33.375Z,16.26
2022-10-19T12:28:32.934Z,16.29
2022-10-19T12:29:32.917Z,16.29
2022-10-19T12:30:32.907Z,16.29
2022-10-19T12:31:32.900Z,16.31
2022-10-19T12:32:32.888Z,16.33
2022-10-19T12:33:32.898Z,16.33
2022-10-19T12:34:32.879Z,16.35
2022-10-19T12:35:32.859Z,16.38
2022-10-19T12:36:32.845Z,16.39
2022-10-19T12:37:33.084Z,16.41
2022-10-19T12:38:32.819Z,16.38
2022-10-19T12:39:32.833Z,16.42
2022-10-19T12:40:32.815Z,16.39
2022-10-19T12:41:32.814Z,16.42
2022-10-19T12:42:32.784Z,16.42
2022-10-19T12:43:32.766Z,16.43
2022-10-19T12:44:32.762Z,16.42
2022-10-19T12:45:32.783Z,16.42
2022-10-19T12:46:32.746Z,16.41
2022-10-19T12:47:33.061Z,16.41
2022-10-19T12:48:32.718Z,16.39
2022-10-19T12:49:32.714Z,16.38
2022-10-19T12:50:35.013Z,16.42
2022-10-19T12:51:32.708Z,16.42
2022-10-19T12:52:32.970Z,16.41
2022-10-19T12:53:32.665Z,16.46
2022-10-19T12:54:32.657Z,16.49
2022-10-19T12:55:32.641Z,16.47
2022-10-19T12:56:32.673Z,16.47
2022-10-19T12:57:32.623Z,16.47
2022-10-19T12:58:32.622Z,16.49
2022-10-19T12:59:32.608Z,16.49
2022-10-19T13:00:32.676Z,16.49
2022-10-19T13:01:32.577Z,16.51
2022-10-19T13:03:32.553Z,16.53
2022-10-19T13:04:32.559Z,16.51
2022-10-19T13:05:32.544Z,16.54
2022-10-19T13:06:32.536Z,16.53
2022-10-19T13:07:32.996Z,16.53
2022-10-19T13:08:32.584Z,16.56
2022-10-19T13:09:32.516Z,16.53
2022-10-19T13:10:32.491Z,16.57
2022-10-19T13:11:32.556Z,16.57
2022-10-19T13:12:32.481Z,16.58
2022-10-19T13:13:32.470Z,16.60
2022-10-19T13:14:32.451Z,16.60
2022-10-19T13:15:32.497Z,16.61
2022-10-19T13:16:32.410Z,16.60
2022-10-19T13:17:34.071Z,16.60
2022-10-19T13:18:32.411Z,16.58
2022-10-19T13:19:32.396Z,16.58
2022-10-19T13:20:32.509Z,16.57
2022-10-19T13:21:32.366Z,16.58
2022-10-19T13:22:32.598Z,16.57
2022-10-19T13:23:32.348Z,16.60
2022-10-19T13:24:32.412Z,16.58
2022-10-19T13:25:32.321Z,16.60
2022-10-19T13:26:32.318Z,16.57
2022-10-19T13:27:32.313Z,16.56
2022-10-19T13:28:32.295Z,16.56
2022-10-19T13:30:32.308Z,16.58
2022-10-19T13:31:32.258Z,16.60
2022-10-19T13:32:32.765Z,16.56
2022-10-19T13:33:32.293Z,16.54
2022-10-19T13:34:32.221Z,16.56
2022-10-19T13:35:32.221Z,16.56
2022-10-19T13:36:32.225Z,16.54
2022-10-19T13:37:34.681Z,16.50
2022-10-19T13:38:32.239Z,16.49
2022-10-19T13:39:32.182Z,16.49
2022-10-19T13:40:32.170Z,16.47
2022-10-19T13:41:32.161Z,16.47
2022-10-19T13:42:32.545Z,16.49
2022-10-19T13:43:32.126Z,16.50
2022-10-19T13:44:32.154Z,16.49
2022-10-19T13:45:32.129Z,16.51
2022-10-19T13:46:32.097Z,16.53
2022-10-19T13:47:32.455Z,16.50
2022-10-19T13:48:32.107Z,16.50
2022-10-19T13:49:32.778Z,16.49
2022-10-19T13:50:32.057Z,16.51
2022-10-19T13:51:32.040Z,16.51
2022-10-19T13:52:32.411Z,16.54
2022-10-19T13:53:32.061Z,16.56
2022-10-19T13:54:32.044Z,16.57
2022-10-19T13:55:32.011Z,16.61
2022-10-19T13:56:32.035Z,16.60
2022-10-19T13:57:32.210Z,16.61
2022-10-19T13:58:31.965Z,16.66
2022-10-19T13:59:31.978Z,16.68
2022-10-19T14:00:31.972Z,16.68
2022-10-19T14:01:32.041Z,16.68
2022-10-19T14:02:32.199Z,16.65
2022-10-19T14:03:31.940Z,16.66
2022-10-19T14:04:31.901Z,16.68
2022-10-19T14:05:31.932Z,16.69
2022-10-19T14:06:31.878Z,16.64
2022-10-19T14:07:32.084Z,16.66
2022-10-19T14:08:31.928Z,16.66
2022-10-19T14:09:31.863Z,16.66
2022-10-19T14:10:33.031Z,16.69
2022-10-19T14:11:31.843Z,16.68
2022-10-19T14:12:31.816Z,16.68
2022-10-19T14:13:31.808Z,16.71
2022-10-19T14:14:31.886Z,16.71
2022-10-19T14:15:31.779Z,16.69
2022-10-19T14:16:31.768Z,16.71
2022-10-19T14:17:32.072Z,16.72
2022-10-19T14:18:31.754Z,16.72
2022-10-19T14:19:31.757Z,16.71
2022-10-19T14:20:31.739Z,16.71
2022-10-19T14:21:31.724Z,16.75
2022-10-19T14:22:31.712Z,16.72
2022-10-19T14:23:31.695Z,16.72
2022-10-19T14:24:31.702Z,16.71
2022-10-19T14:25:31.675Z,16.71
2022-10-19T14:26:31.689Z,16.68
2022-10-19T14:27:31.841Z,16.65
2022-10-19T14:28:31.652Z,16.60
2022-10-19T14:29:31.670Z,16.58
2022-10-19T14:30:31.637Z,16.58
2022-10-19T14:31:31.618Z,16.57
2022-10-19T14:32:31.656Z,16.57
2022-10-19T14:33:31.601Z,16.57
2022-10-19T14:34:31.588Z,16.57
2022-10-19T14:35:31.566Z,16.56
2022-10-19T14:36:31.566Z,16.54
2022-10-19T14:37:31.691Z,16.56
2022-10-19T14:38:31.576Z,16.56
2022-10-19T14:39:31.551Z,16.60
2022-10-19T14:40:31.524Z,16.57
2022-10-19T14:41:31.596Z,16.57
2022-10-19T14:42:31.551Z,16.60
2022-10-19T14:43:31.509Z,16.61
2022-10-19T14:44:31.491Z,16.60
2022-10-19T14:45:31.475Z,16.60
2022-10-19T14:46:31.527Z,16.57
2022-10-19T14:47:31.446Z,16.58
2022-10-19T14:48:31.457Z,16.56
2022-10-19T14:49:31.419Z,16.57
2022-10-19T14:50:31.457Z,16.56
2022-10-19T14:51:31.394Z,16.53
2022-10-19T14:52:31.415Z,16.54
2022-10-19T14:53:31.425Z,16.53
2022-10-19T14:54:31.398Z,16.53
2022-10-19T14:55:31.371Z,16.49
2022-10-19T14:56:31.345Z,16.47
2022-10-19T14:57:31.367Z,16.46
2022-10-19T14:58:31.345Z,16.47
2022-10-19T14:59:31.408Z,16.46
2022-10-19T15:00:31.313Z,16.46
2022-10-19T15:01:31.340Z,16.46
2022-10-19T15:02:31.459Z,16.46
2022-10-19T15:03:31.315Z,16.42
2022-10-19T15:04:31.277Z,16.43
2022-10-19T15:05:31.254Z,16.43
2022-10-19T15:06:31.258Z,16.43
2022-10-19T15:07:31.225Z,16.46
2022-10-19T15:08:31.289Z,16.42
2022-10-19T15:09:37.831Z,16.42
2022-10-19T15:10:35.635Z,16.42
2022-10-19T15:11:31.191Z,16.42
2022-10-19T15:12:31.196Z,16.42
2022-10-19T15:13:31.166Z,16.39
2022-10-19T15:14:31.163Z,16.41
2022-10-19T15:15:31.172Z,16.39
2022-10-19T15:16:31.247Z,16.36
2022-10-19T15:17:31.134Z,16.36
2022-10-19T15:18:48.380Z,16.35
2022-10-19T15:19:31.116Z,16.36
2022-10-19T15:20:31.357Z,16.32
2022-10-19T15:21:33.426Z,16.28
2022-10-19T15:22:31.073Z,16.26
2022-10-19T15:23:31.082Z,16.26
2022-10-19T15:24:31.070Z,16.21
2022-10-19T15:25:31.064Z,16.24
2022-10-19T15:26:31.032Z,16.21
2022-10-19T15:27:31.059Z,16.20
2022-10-19T15:28:31.017Z,16.17
2022-10-19T15:29:30.996Z,16.13
2022-10-19T15:30:31.078Z,16.12
2022-10-19T15:31:30.982Z,16.09
2022-10-19T15:32:30.996Z,16.05
2022-10-19T15:33:30.955Z,16.08
2022-10-19T15:34:30.983Z,16.04
2022-10-19T15:35:30.957Z,16.02
2022-10-19T15:36:30.923Z,16.00
2022-10-19T15:37:30.925Z,16.01
2022-10-19T15:38:30.933Z,16.00
2022-10-19T15:39:38.955Z,16.00
2022-10-19T15:40:30.895Z,16.01
2022-10-19T15:41:30.874Z,15.95
2022-10-19T15:42:30.861Z,15.97
2022-10-19T15:43:30.850Z,15.95
2022-10-19T15:44:30.866Z,15.94
2022-10-19T15:45:30.821Z,15.95
2022-10-19T15:46:30.865Z,15.92
2022-10-19T15:47:30.811Z,15.92
2022-10-19T15:48:30.805Z,15.91
2022-10-19T15:49:30.777Z,15.91
2022-10-19T15:50:30.789Z,15.92
2022-10-19T15:51:30.800Z,15.88
2022-10-19T15:52:30.751Z,15.88
2022-10-19T15:53:30.741Z,15.83
2022-10-19T15:54:30.734Z,15.82
2022-10-19T15:55:30.731Z,15.82
2022-10-19T15:56:30.721Z,15.79
2022-10-19T15:57:30.692Z,15.77
2022-10-19T15:58:30.758Z,15.76
2022-10-19T15:59:30.675Z,15.75
2022-10-19T16:00:31.052Z,15.67
2022-10-19T16:01:30.711Z,15.68
2022-10-19T16:02:30.639Z,15.65
2022-10-19T16:03:30.645Z,15.64
2022-10-19T16:04:30.637Z,15.61
2022-10-19T16:05:30.608Z,15.59
2022-10-19T16:06:30.647Z,15.55
2022-10-19T16:07:30.624Z,15.54
2022-10-19T16:08:30.626Z,15.47
2022-10-19T16:09:30.564Z,15.47
2022-10-19T16:10:30.568Z,15.43
2022-10-19T16:11:30.560Z,15.40
2022-10-19T16:12:30.554Z,15.42
2022-10-19T16:13:30.525Z,15.40
2022-10-19T16:14:33.100Z,15.39
2022-10-19T16:15:30.506Z,15.37
2022-10-19T16:16:30.517Z,15.36
2022-10-19T16:17:30.497Z,15.33
2022-10-19T16:18:30.494Z,15.31
2022-10-19T16:19:30.472Z,15.29
2022-10-19T16:20:30.492Z,15.28
2022-10-19T16:21:30.467Z,15.25
2022-10-19T16:22:30.450Z,15.22
2022-10-19T16:23:30.434Z,15.19
2022-10-19T16:24:30.404Z,15.18
2022-10-19T16:25:30.390Z,15.18
2022-10-19T16:26:30.396Z,15.15
2022-10-19T16:27:30.373Z,15.11
2022-10-19T16:28:30.374Z,15.09
2022-10-19T16:29:30.397Z,15.09
2022-10-19T16:30:30.363Z,15.06
2022-10-19T16:31:30.340Z,15.06
2022-10-19T16:32:30.347Z,15.03
2022-10-19T16:33:30.304Z,14.99
2022-10-19T16:34:30.329Z,14.97
2022-10-19T16:35:30.292Z,14.97
2022-10-19T16:36:30.288Z,14.97
2022-10-19T16:37:30.266Z,14.96
2022-10-19T16:38:30.265Z,14.92
2022-10-19T16:39:30.534Z,14.92
2022-10-19T16:40:30.233Z,14.91
2022-10-19T16:41:31.203Z,14.89
2022-10-19T16:42:30.684Z,14.86
2022-10-19T16:43:30.196Z,14.85
2022-10-19T16:44:30.228Z,14.84
2022-10-19T16:45:30.196Z,14.81
2022-10-19T16:46:30.172Z,14.81
2022-10-19T16:47:30.160Z,14.79
2022-10-19T16:48:30.189Z,14.78
2022-10-19T16:49:30.154Z,14.77
2022-10-19T16:50:30.183Z,14.77